Latest Weather Observations for Busselton Airport

IDW60801

Issued at 9:31 pm WST Wednesday 4 May 2016 (issued every 30 minutes, with the page automatically refreshed every 10 minutes)

About weather observations | Map of weather stations | Latest weather observations for WA | Other Formats
Station Details ID: 009603 Name: BUSSELTON AERO Lat: -33.69 Lon: 115.40 Height: 16.3 m
Data from the previous 72 hours. | See also: Recent months at Busselton Airport
Date/Time
WST
Temp
°C
App
Temp
°C
Dew
Point
Rel
Hum
%
Delta-T
°C
Wind Press
QNH
hPa
Press
MSL
hPa
Rain
since 9 am
mm
Dir
 
Spd
km/h
Gust
km/h
Spd
kts
Gust
kts
04/09:30pm 14.6 15.0 11.2 80 1.8 CALM 0 0 0 0 1014.8 1014.8 0.0
04/09:00pm 15.6 14.8 11.2 75 2.4 W 6 6 3 3 1014.7 1014.7 0.0
04/08:30pm 16.4 16.1 11.6 73 2.6 WSW 4 7 2 4 1014.6 1014.6 0.0
04/08:00pm 16.4 15.1 11.1 71 2.8 W 9 11 5 6 1014.6 1014.6 0.0
04/07:30pm 16.6 15.7 11.3 71 2.9 W 7 9 4 5 1014.6 1014.6 0.0
04/07:00pm 16.9 15.6 11.2 69 3.1 WNW 9 15 5 8 1014.3 1014.3 0.0
04/06:30pm 17.8 16.2 11.6 67 3.4 W 11 15 6 8 1014.0 1014.0 0.0
04/06:00pm 18.3 16.3 11.6 65 3.7 W 13 19 7 10 1013.7 1013.7 0.0
04/05:30pm 18.5 15.5 11.8 65 3.7 WSW 19 30 10 16 1013.8 1013.8 0.0
04/05:00pm 18.8 16.3 12.3 66 3.6 WSW 17 24 9 13 1013.8 1013.8 0.0
04/04:30pm 19.4 17.1 13.1 67 3.6 WSW 17 24 9 13 1013.4 1013.4 0.0
04/04:00pm 19.6 17.6 12.8 65 3.8 W 15 20 8 11 1013.6 1013.6 0.0
04/03:30pm 19.8 16.8 12.1 61 4.3 W 19 26 10 14 1013.8 1013.8 0.0
04/03:00pm 20.7 18.1 11.9 57 4.9 W 17 24 9 13 1013.7 1013.7 0.0
04/02:30pm 20.7 17.8 12.4 59 4.7 WNW 19 28 10 15 1013.9 1013.9 0.0
04/02:00pm 20.2 16.9 12.9 63 4.1 W 22 32 12 17 1014.0 1014.0 0.0
04/01:30pm 19.9 17.0 14.0 69 3.4 WNW 22 30 12 16 1014.2 1014.2 0.0
04/01:00pm 19.7 17.5 14.9 74 2.8 NW 20 28 11 15 1014.4 1014.4 0.0
04/12:30pm 20.3 18.5 15.5 74 2.8 NW 19 26 10 14 1014.5 1014.5 0.0
04/12:00pm 19.5 17.9 13.9 70 3.2 WNW 15 24 8 13 1015.2 1015.2 0.0
04/11:30am 19.4 17.1 13.1 67 3.6 WNW 17 26 9 14 1015.8 1015.8 0.0
04/11:00am 19.6 17.2 12.8 65 3.8 WNW 17 26 9 14 1016.1 1016.1 0.0
04/10:30am 18.9 17.0 13.1 69 3.3 W 15 22 8 12 1016.5 1016.5 0.0
04/10:00am 18.5 17.4 14.2 76 2.5 NW 13 17 7 9 1016.5 1016.5 0.0
04/09:30am 17.3 18.6 17.0 98 0.2 NW 6 9 3 5 1016.7 1016.7 0.0
04/09:00am 15.6 16.3 15.6 100 0.0 NNE 6 7 3 4 1016.8 1016.8 0.0
04/08:30am 14.4 14.7 14.4 100 0.0 ESE 6 7 3 4 1017.1 1017.1 0.0
04/08:00am 13.5 13.3 13.5 100 0.0 ESE 7 9 4 5 1017.1 1017.1 0.0
04/07:30am 12.9 13.1 12.9 100 0.0 ESE 4 6 2 3 1016.9 1016.9 0.0
04/07:00am 12.4 11.8 12.4 100 0.0 E 7 9 4 5 1016.7 1016.7 0.0
04/06:30am 12.5 12.0 12.5 100 0.0 ESE 7 7 4 4 1016.8 1016.8 0.0
04/06:00am 12.7 12.2 12.7 100 0.0 ENE 7 9 4 5 1016.7 1016.7 0.0
04/05:30am 12.7 12.2 12.7 100 0.0 ENE 7 9 4 5 1016.8 1016.8 0.0
04/05:00am 12.6 12.7 12.6 100 0.0 ENE 4 9 2 5 1016.9 1016.9 0.0
04/04:30am 12.9 12.7 12.9 100 0.0 ENE 6 7 3 4 1017.0 1017.0 0.0
04/04:00am 12.6 11.7 12.6 100 0.0 E 9 11 5 6 1017.0 1017.0 0.0
04/03:30am 12.5 12.0 12.5 100 0.0 ESE 7 9 4 5 1017.1 1017.1 0.0
04/03:00am 12.0 11.3 12.0 100 0.0 ESE 7 9 4 5 1017.5 1017.5 0.0
04/02:30am 11.6 10.8 11.6 100 0.0 ESE 7 9 4 5 1017.7 1017.7 0.0
04/02:00am 11.7 11.1 11.7 100 0.0 E 6 7 3 4 1017.9 1017.9 0.0
04/01:30am 11.0 10.0 11.0 100 0.0 ESE 7 9 4 5 1018.2 1018.2 0.0
04/01:00am 9.7 8.3 9.6 99 0.0 ESE 7 9 4 5 1018.4 1018.4 0.0
04/12:30am 9.8 8.4 9.7 99 0.1 E 7 9 4 5 1018.5 1018.5 0.0
04/12:00am 10.7 9.8 10.5 99 0.1 NNE 6 7 3 4 1018.8 1018.8 0.0
 
Date/Time
WST
Temp
°C
App
Temp
°C
Dew
Point
Rel
Hum
%
Delta-T
°C
Wind Press
QNH
hPa
Press
MSL
hPa
Rain
since 9 am
mm
Dir
 
Spd
km/h
Gust
km/h
Spd
kts
Gust
kts
03/11:30pm 10.1 9.8 10.0 99 0.1 NE 2 9 1 5 1018.9 1018.9 0.0
03/11:00pm 9.8 9.8 9.7 99 0.0 CALM 0 0 0 0 1019.0 1019.0 0.0
03/10:30pm 10.2 9.9 10.1 99 0.1 SSW 2 6 1 3 1019.2 1019.2 0.0
03/10:00pm 10.5 10.6 10.3 99 0.1 CALM 0 0 0 0 1019.4 1019.4 0.0
03/09:30pm 11.1 11.3 10.6 97 0.3 CALM 0 0 0 0 1019.5 1019.5 0.0
03/09:00pm 11.7 12.1 11.2 97 0.3 CALM 0 0 0 0 1019.6 1019.6 0.0
03/08:30pm 12.0 12.4 11.1 94 0.5 CALM 0 0 0 0 1019.6 1019.6 0.0
03/08:00pm 13.2 13.8 11.9 92 0.7 CALM 0 6 0 3 1019.7 1019.7 0.0
03/07:30pm 14.6 14.1 12.5 87 1.1 SW 7 11 4 6 1019.8 1019.8 0.0
03/07:00pm 15.1 14.8 12.8 86 1.3 SW 6 7 3 4 1019.7 1019.7 0.0
03/06:30pm 15.7 15.4 12.8 83 1.6 SW 6 7 3 4 1019.5 1019.5 0.0
03/06:00pm 16.9 16.1 12.8 77 2.3 WSW 9 15 5 8 1019.3 1019.3 0.0
03/05:30pm 18.0 16.4 12.9 72 2.9 WSW 13 19 7 10 1019.2 1019.2 0.0
03/05:00pm 18.9 17.0 13.1 69 3.3 W 15 19 8 10 1019.0 1019.0 0.0
03/04:30pm 19.1 19.3 14.1 73 2.9 WSW 6 9 3 5 1019.1 1019.1 0.0
03/04:00pm 18.9 18.0 14.8 77 2.4 NNW 13 17 7 9 1019.2 1019.2 0.0
03/03:30pm 18.3 16.9 14.4 78 2.2 NNW 15 20 8 11 1019.2 1019.2 0.0
03/03:00pm 18.5 16.5 14.0 75 2.6 NW 17 20 9 11 1019.3 1019.3 0.0
03/02:30pm 18.7 17.1 14.0 74 2.7 NNW 15 19 8 10 1019.4 1019.4 0.0
03/02:00pm 19.0 16.6 13.8 72 3.0 NW 19 22 10 12 1019.5 1019.5 0.0
03/01:30pm 20.7 19.9 15.0 70 3.4 NNW 13 19 7 10 1019.7 1019.7 0.0
03/01:00pm 20.1 19.1 12.3 61 4.4 W 9 13 5 7 1019.9 1019.9 0.0
03/12:30pm 19.6 19.1 12.6 64 3.9 S 7 11 4 6 1020.3 1020.3 0.0
03/12:00pm 19.1 18.3 12.8 67 3.5 WSW 9 15 5 8 1020.8 1020.8 0.0
03/11:30am 18.7 17.5 12.9 69 3.3 SSW 11 19 6 10 1021.4 1021.4 0.0
03/11:00am 18.1 16.8 13.6 75 2.5 S 13 17 7 9 1021.7 1021.7 0.0
03/10:30am 18.0 17.4 13.5 75 2.5 S 9 15 5 8 1021.8 1021.8 0.0
03/10:00am 17.4 16.9 13.9 80 2.0 S 9 13 5 7 1021.6 1021.6 0.0
03/09:30am 16.6 17.4 16.4 99 0.1 SSW 7 13 4 7 1021.8 1021.8 0.0
03/09:00am 15.4 16.8 15.4 100 0.0 S 2 7 1 4 1022.0 1022.0 0.2
03/08:30am 14.6 16.1 14.6 100 0.0 CALM 0 0 0 0 1022.0 1022.0 0.2
03/08:00am 13.4 14.5 13.4 100 0.0 CALM 0 0 0 0 1021.8 1021.8 0.2
03/07:30am 11.2 11.6 11.2 100 0.0 CALM 0 0 0 0 1021.5 1021.5 0.2
03/07:00am 12.4 13.2 12.4 100 0.0 CALM 0 0 0 0 1021.1 1021.1 0.2
03/06:30am 13.4 14.5 13.4 100 0.0 CALM 0 0 0 0 1020.8 1020.8 0.2
03/06:00am 13.6 13.6 13.6 100 0.0 SW 6 7 3 4 1020.8 1020.8 0.2
03/05:30am 13.2 13.8 13.2 100 0.0 SW 2 9 1 5 1020.6 1020.6 0.2
03/05:00am 13.1 14.1 13.1 100 0.0 CALM 0 0 0 0 1020.4 1020.4 0.2
03/04:30am 12.7 12.2 12.7 100 0.0 SSW 7 9 4 5 1020.7 1020.7 0.0
03/04:00am 12.0 12.6 12.0 100 0.0 CALM 0 0 0 0 1020.4 1020.4 0.0
03/03:30am 11.3 10.6 11.3 100 0.0 SSE 6 11 3 6 1020.4 1020.4 0.0
03/03:00am 11.0 11.3 11.0 100 0.0 CALM 0 0 0 0 1020.6 1020.6 0.0
03/02:30am 10.7 9.6 10.7 100 0.0 SSW 7 7 4 4 1020.6 1020.6 0.0
03/02:00am 8.9 8.6 8.8 99 0.0 CALM 0 0 0 0 1020.9 1020.9 0.0
03/01:30am 9.7 8.5 9.6 99 0.0 S 6 6 3 3 1021.2 1021.2 0.0
03/01:00am 9.5 9.4 9.4 99 0.0 CALM 0 0 0 0 1021.4 1021.4 0.0
03/12:30am 9.6 9.1 9.5 99 0.0 SSW 2 6 1 3 1021.3 1021.3 0.0
03/12:00am 10.0 9.3 9.9 99 0.1 SSW 4 6 2 3 1021.2 1021.2 0.0
 
Date/Time
WST
Temp
°C
App
Temp
°C
Dew
Point
Rel
Hum
%
Delta-T
°C
Wind Press
QNH
hPa
Press
MSL
hPa
Rain
since 9 am
mm
Dir
 
Spd
km/h
Gust
km/h
Spd
kts
Gust
kts
02/11:30pm 9.7 7.9 9.6 99 0.0 SW 9 9 5 5 1021.4 1021.4 0.0
02/11:00pm 10.9 9.8 10.7 99 0.1 SSW 7 9 4 5 1021.3 1021.3 0.0
02/10:30pm 10.4 9.1 10.1 98 0.2 S 7 9 4 5 1021.4 1021.4 0.0
02/10:00pm 10.1 8.7 9.6 97 0.2 S 7 9 4 5 1021.4 1021.4 0.0
02/09:30pm 11.1 10.2 10.6 97 0.3 SSW 6 7 3 4 1021.2 1021.2 0.0
02/09:00pm 11.1 9.9 10.2 94 0.5 WSW 7 7 4 4 1021.2 1021.2 0.0
02/08:30pm 12.1 11.2 10.7 91 0.7 SW 6 6 3 3 1021.2 1021.2 0.0
02/08:00pm 12.8 11.8 10.3 85 1.3 SW 6 6 3 3 1021.0 1021.0 0.0
02/07:30pm 15.2 14.6 12.2 82 1.6 WSW 7 7 4 4 1021.0 1021.0 0.0
02/07:00pm 15.1 14.2 12.6 85 1.4 SW 9 11 5 6 1020.8 1020.8 0.0
02/06:30pm 16.2 15.7 12.6 79 2.0 WSW 7 9 4 5 1020.6 1020.6 0.0
02/06:00pm 16.9 16.0 12.6 76 2.4 SW 9 11 5 6 1020.3 1020.3 0.0
02/05:30pm 17.9 16.0 13.0 73 2.7 SW 15 20 8 11 1020.0 1020.0 0.0
02/05:00pm 18.4 15.6 13.1 71 3.0 WSW 20 26 11 14 1019.9 1019.9 0.0
02/04:30pm 19.1 16.9 13.3 69 3.3 SW 17 20 9 11 1019.8 1019.8 0.0
02/04:00pm 19.5 17.8 13.7 69 3.3 SW 15 20 8 11 1019.7 1019.7 0.0
02/03:30pm 19.7 16.9 13.2 66 3.7 SW 20 28 11 15 1019.7 1019.7 0.0
02/03:00pm 19.7 18.0 13.6 68 3.5 WSW 15 19 8 10 1019.4 1019.4 0.0
02/02:30pm 19.5 18.2 13.7 69 3.3 WSW 13 22 7 12 1019.3 1019.3 0.0
02/02:00pm 19.4 18.5 13.8 70 3.2 W 11 19 6 10 1019.3 1019.3 0.0
02/01:30pm 19.1 17.7 13.5 70 3.2 WSW 13 19 7 10 1019.6 1019.6 0.0
02/01:00pm 18.5 17.1 13.4 72 2.9 SW 13 20 7 11 1020.0 1020.0 0.0
02/12:30pm 18.2 16.8 13.3 73 2.8 WSW 13 20 7 11 1020.5 1020.5 0.0
02/12:00pm 17.9 15.8 13.6 76 2.4 WSW 17 26 9 14 1020.9 1020.9 0.0
02/11:30am 18.5 16.4 12.5 68 3.3 WSW 15 22 8 12 1020.8 1020.8 0.0
02/11:00am 18.4 17.0 13.3 72 2.9 WSW 13 20 7 11 1021.0 1021.0 0.0
02/10:30am 18.2 18.1 16.9 92 0.8 WSW 13 17 7 9 1021.0 1021.0 0.0
02/10:00am 16.7 19.0 16.7 100 0.0 CALM 0 0 0 0 1021.0 1021.0 0.0
02/09:30am 15.6 17.1 15.6 100 0.0 ESE 2 6 1 3 1021.0 1021.0 0.0
02/09:00am 14.0 14.9 14.0 100 0.0 ENE 2 6 1 3 1021.2 1021.2 1.0
02/08:30am 13.2 13.1 13.2 100 0.0 ESE 6 7 3 4 1021.1 1021.1 1.0
02/08:00am 12.3 11.7 12.3 100 0.0 ESE 7 7 4 4 1020.9 1020.9 1.0
02/07:30am 11.8 11.0 11.8 100 0.0 ESE 7 11 4 6 1020.5 1020.5 1.0
02/07:00am 10.6 9.7 10.6 100 0.0 E 6 7 3 4 1020.3 1020.3 1.0
02/06:30am 10.3 9.3 10.3 100 0.0 E 6 6 3 3 1020.1 1020.1 1.0
02/06:00am 10.2 9.0 10.2 100 0.0 E 7 9 4 5 1020.0 1020.0 1.0
02/05:30am 10.5 9.0 10.5 100 0.0 ESE 9 11 5 6 1019.7 1019.7 1.0
02/05:00am 11.7 11.1 11.7 100 0.0 E 6 7 3 4 1019.6 1019.6 1.0
02/04:30am 13.0 12.8 13.0 100 0.0 NNE 6 7 3 4 1019.6 1019.6 1.0
02/04:00am 12.7 12.8 12.7 100 0.0 ESE 4 7 2 4 1019.7 1019.7 0.8
02/03:30am 12.3 12.6 12.3 100 0.0 ESE 2 6 1 3 1019.7 1019.7 0.8
02/03:00am 11.9 11.2 11.9 100 0.0 SE 7 9 4 5 1019.9 1019.9 0.4
02/02:30am 11.4 10.5 11.4 100 0.0 E 7 9 4 5 1020.0 1020.0 0.4
02/02:00am 11.6 10.8 11.6 100 0.0 ESE 7 11 4 6 1020.3 1020.3 0.4
02/01:30am 11.8 11.0 11.8 100 0.0 SE 7 9 4 5 1020.2 1020.2 0.4
02/01:00am 11.6 11.0 11.6 100 0.0 E 6 9 3 5 1020.4 1020.4 0.4
02/12:30am 11.5 10.6 11.3 99 0.1 ESE 7 9 4 5 1020.7 1020.7 0.4
02/12:00am 11.4 10.5 11.2 99 0.1 ESE 7 9 4 5 1020.5 1020.5 0.4
 
Date/Time
WST
Temp
°C
App
Temp
°C
Dew
Point
Rel
Hum
%
Delta-T
°C
Wind Press
QNH
hPa
Press
MSL
hPa
Rain
since 9 am
mm
Dir
 
Spd
km/h
Gust
km/h
Spd
kts
Gust
kts
01/11:30pm 11.1 10.1 10.9 99 0.1 E 7 9 4 5 1020.7 1020.7 0.4
01/11:00pm 10.5 9.3 10.3 99 0.1 ESE 7 9 4 5 1020.8 1020.8 0.4
01/10:30pm 9.6 8.4 9.5 99 0.0 E 6 7 3 4 1021.0 1021.0 0.4
01/10:00pm 11.1 9.3 10.9 99 0.1 ENE 11 13 6 7 1021.1 1021.1 0.4

Other Formats:

Comma delimited format used in spreadsheet applications
http://www.bom.gov.au/fwo/IDW60801/IDW60801.95611.axf

JavaScript Object Notation format (JSON) in row-major order
http://www.bom.gov.au/fwo/IDW60801/IDW60801.95611.json